Time;durP1;ratioP1;P1;durP2;ratioP2;P2;SDS_P1;SDS_P2;PMS_P1;PMS_P2;Temp;Humidity;BMP_temperature;BMP_pressure;BME280_temperature;BME280_humidity;BME280_pressure;Samples;Min_cycle;Max_cycle;Signal;HPM_P1;HPM_P2
2021/11/03 00:01:29;;;;;;;;;;;;;;;5.04;79.80;98111.03;5012482;28;19921;-72
2021/11/03 00:03:57;;;;;;;;;;;;;;;5.10;79.47;98100.25;5031094;28;19917;-71
2021/11/03 00:06:23;;;;;;;;;;;;;;;5.15;79.42;98097.41;5013550;28;19959;-72
2021/11/03 00:08:57;;;;;;;;;;;;;;;5.16;78.71;98099.06;5013566;28;19953;-72
2021/11/03 00:11:23;;;;;;;;;;;;;;;5.15;78.49;98102.63;5012725;28;20266;-72
2021/11/03 00:13:48;;;;;;;;;;;;;;;5.18;78.60;98102.44;5031912;28;19923;-72
2021/11/03 00:16:13;;;;;;;;;;;;;;;5.16;78.82;98102.53;5030988;28;19966;-73
2021/11/03 00:18:39;;;;;;;;;;;;;;;5.17;78.94;98098.16;5030870;28;19929;-71
2021/11/03 00:21:05;;;;;;;;;;;;;;;5.18;78.73;98099.00;5012772;28;19962;-72
2021/11/03 00:23:30;;;;;;;;;;;;;;;5.21;78.70;98101.44;5030248;28;19921;-71
2021/11/03 00:25:56;;;;;;;;;;;;;;;5.23;78.77;98096.97;5034715;28;19917;-72
2021/11/03 00:28:21;;;;;;;;;;;;;;;5.19;79.03;98101.50;5014577;28;20430;-73
2021/11/03 00:30:48;;;;;;;;;;;;;;;5.15;79.86;98103.47;5030797;28;19917;-72
2021/11/03 00:33:14;;;;;;;;;;;;;;;5.15;79.57;98102.63;5012907;28;19952;-74
2021/11/03 00:35:39;;;;;;;;;;;;;;;5.26;79.26;98102.03;5030692;28;20360;-73
2021/11/03 00:38:05;;;;;;;;;;;;;;;5.34;79.14;98099.81;5027412;28;19921;-72
2021/11/03 00:40:30;;;;;;;;;;;;;;;5.37;78.20;98094.47;5030474;28;20282;-72
2021/11/03 00:42:56;;;;;;;;;;;;;;;5.41;77.98;98090.72;5028851;28;19957;-73
2021/11/03 00:45:21;;;;;;;;;;;;;;;5.44;77.85;98082.75;5030024;28;19928;-73
2021/11/03 00:47:47;;;;;;;;;;;;;;;5.46;77.89;98080.03;5030071;28;20349;-72
2021/11/03 00:50:16;;;;;;;;;;;;;;;5.46;78.19;98080.03;5030484;28;20296;-72
2021/11/03 00:52:41;;;;;;;;;;;;;;;5.46;77.81;98085.25;5030193;28;19917;-72
2021/11/03 00:55:06;;;;;;;;;;;;;;;5.49;78.11;98077.22;5030417;28;19921;-73
2021/11/03 00:57:31;;;;;;;;;;;;;;;5.46;77.98;98077.41;5032838;28;19913;-72
2021/11/03 00:59:57;;;;;;;;;;;;;;;5.42;78.02;98073.31;5013118;28;20285;-71
2021/11/03 01:02:22;;;;;;;;;;;;;;;5.40;78.07;98078.59;5029935;28;19921;-73
2021/11/03 01:04:47;;;;;;;;;;;;;;;5.40;77.82;98073.38;5030374;28;19928;-72
2021/11/03 01:07:13;;;;;;;;;;;;;;;5.40;78.21;98069.94;5029205;28;19996;-73
2021/11/03 01:09:38;;;;;;;;;;;;;;;5.40;78.45;98065.53;5001549;28;24696;-73
2021/11/03 01:12:04;;;;;;;;;;;;;;;5.35;78.10;98064.94;5028919;28;19924;-73
2021/11/03 01:14:30;;;;;;;;;;;;;;;5.29;78.27;98058.31;5029819;28;20769;-70
2021/11/03 01:16:55;;;;;;;;;;;;;;;5.29;78.78;98057.44;5029754;28;20052;-69
2021/11/03 01:19:20;;;;;;;;;;;;;;;5.31;78.68;98059.03;5029903;28;19921;-70
2021/11/03 01:21:45;;;;;;;;;;;;;;;5.39;78.19;98061.25;5019446;28;19944;-72
2021/11/03 01:24:11;;;;;;;;;;;;;;;5.44;77.52;98055.75;5031416;28;19921;-71
2021/11/03 01:26:36;;;;;;;;;;;;;;;5.45;77.59;98045.22;5033721;28;19917;-70
2021/11/03 01:29:02;;;;;;;;;;;;;;;5.47;77.27;98040.75;5034737;28;19921;-70
2021/11/03 01:31:28;;;;;;;;;;;;;;;5.44;77.50;98040.06;5030003;28;19983;-72
2021/11/03 01:33:55;;;;;;;;;;;;;;;5.35;77.20;98036.22;5029818;28;19982;-71
2021/11/03 01:36:21;;;;;;;;;;;;;;;5.25;78.65;98033.28;5018443;28;19917;-71
2021/11/03 01:38:46;;;;;;;;;;;;;;;5.29;78.44;98036.53;5029410;28;20399;-70
2021/11/03 01:41:11;;;;;;;;;;;;;;;5.33;77.89;98027.59;5025786;28;19979;-71
2021/11/03 01:43:39;;;;;;;;;;;;;;;5.35;77.71;98018.75;5029136;28;19928;-72
2021/11/03 01:46:20;;;;;;;;;;;;;;;5.38;78.18;98023.81;5011448;28;19943;-71
2021/11/03 01:48:45;;;;;;;;;;;;;;;5.43;77.36;98025.31;5018724;28;19918;-70
2021/11/03 01:51:14;;;;;;;;;;;;;;;5.44;77.57;98024.38;5028905;28;19924;-73
2021/11/03 01:53:39;;;;;;;;;;;;;;;5.44;77.48;98024.38;5011371;28;20020;-71
2021/11/03 01:56:06;;;;;;;;;;;;;;;5.43;77.22;98015.69;5018212;28;20505;-71
2021/11/03 01:58:40;;;;;;;;;;;;;;;5.40;78.30;98017.66;5000742;28;19967;-71
2021/11/03 02:01:05;;;;;;;;;;;;;;;5.30;78.06;98014.72;4992011;28;19940;-71
2021/11/03 02:03:31;;;;;;;;;;;;;;;5.31;79.02;98021.63;5010757;28;20369;-72
2021/11/03 02:06:02;;;;;;;;;;;;;;;5.38;78.93;98015.97;5002552;28;19917;-72
2021/11/03 02:08:29;;;;;;;;;;;;;;;5.36;77.64;98012.59;5011722;28;19917;-72
2021/11/03 02:10:54;;;;;;;;;;;;;;;5.31;78.41;98013.78;5028906;28;19917;-72
2021/11/03 02:13:20;;;;;;;;;;;;;;;5.31;78.33;98006.78;5027880;28;19917;-71
2021/11/03 02:15:45;;;;;;;;;;;;;;;5.30;78.65;98006.88;5028849;28;19979;-71
2021/11/03 02:18:12;;;;;;;;;;;;;;;5.35;78.06;98003.06;5028102;28;19929;-71
2021/11/03 02:20:42;;;;;;;;;;;;;;;5.28;78.31;98003.50;5030256;28;19921;-70
2021/11/03 02:23:16;;;;;;;;;;;;;;;5.20;78.52;97998.72;5032695;28;19989;-71
2021/11/03 02:25:46;;;;;;;;;;;;;;;5.23;79.39;97995.09;5032009;28;19983;-69
2021/11/03 02:28:11;;;;;;;;;;;;;;;5.28;79.11;97995.69;5032137;28;20299;-71
2021/11/03 02:30:37;;;;;;;;;;;;;;;5.32;78.42;98005.03;5014345;28;19921;-71
2021/11/03 02:33:04;;;;;;;;;;;;;;;5.33;78.29;98004.09;5034264;28;19932;-70
2021/11/03 02:35:29;;;;;;;;;;;;;;;5.38;77.85;98002.06;5033226;28;20017;-70
2021/11/03 02:37:56;;;;;;;;;;;;;;;5.40;77.99;97996.75;5031644;28;19972;-72
2021/11/03 02:40:39;;;;;;;;;;;;;;;5.37;78.05;97990.78;5031699;28;20378;-72
2021/11/03 02:43:11;;;;;;;;;;;;;;;5.37;78.17;97988.16;5037110;28;19928;-71
2021/11/03 02:45:36;;;;;;;;;;;;;;;5.37;77.77;97995.16;5038616;28;20429;-71
2021/11/03 02:48:02;;;;;;;;;;;;;;;5.44;77.54;97985.19;5017096;28;19945;-71
2021/11/03 02:50:27;;;;;;;;;;;;;;;5.46;77.08;97986.78;5036343;28;19917;-72
2021/11/03 02:52:52;;;;;;;;;;;;;;;5.45;77.41;97986.88;5036514;28;19918;-71
2021/11/03 02:55:17;;;;;;;;;;;;;;;5.47;76.88;97985.03;5031960;28;19953;-71
2021/11/03 02:57:42;;;;;;;;;;;;;;;5.49;77.11;97993.59;5029932;28;20000;-70
2021/11/03 03:00:11;;;;;;;;;;;;;;;5.50;77.37;97990.06;5013848;28;20284;-70
2021/11/03 03:02:36;;;;;;;;;;;;;;;5.50;77.30;97990.06;5014145;28;19921;-71
2021/11/03 03:05:01;;;;;;;;;;;;;;;5.52;77.18;97986.44;5034248;28;19924;-71
2021/11/03 03:07:27;;;;;;;;;;;;;;;5.51;77.44;97994.34;5032623;28;19948;-71
2021/11/03 03:09:52;;;;;;;;;;;;;;;5.48;77.08;97984.09;5031973;28;19917;-71
2021/11/03 03:12:19;;;;;;;;;;;;;;;5.50;77.93;97992.69;5031594;28;19921;-72
2021/11/03 03:14:46;;;;;;;;;;;;;;;5.56;77.21;97993.19;5031375;28;19917;-71
2021/11/03 03:17:12;;;;;;;;;;;;;;;5.58;77.46;97991.28;5031484;28;19917;-70
2021/11/03 03:19:37;;;;;;;;;;;;;;;5.58;77.19;97998.31;5031702;28;19925;-72
2021/11/03 03:22:03;;;;;;;;;;;;;;;5.59;77.54;97995.63;5031178;28;19921;-71
2021/11/03 03:24:31;;;;;;;;;;;;;;;5.62;77.17;97997.19;5031947;28;19917;-71
2021/11/03 03:26:56;;;;;;;;;;;;;;;5.62;77.89;97998.97;5031606;28;20383;-71
2021/11/03 03:29:22;;;;;;;;;;;;;;;5.66;77.22;98001.34;5031226;28;19924;-70
2021/11/03 03:31:48;;;;;;;;;;;;;;;5.64;77.30;98004.97;5030807;28;19925;-71
2021/11/03 03:34:14;;;;;;;;;;;;;;;5.67;77.81;98010.00;5028246;28;19917;-71
2021/11/03 03:36:40;;;;;;;;;;;;;;;5.71;76.87;98009.75;5032339;28;20286;-70
2021/11/03 03:39:08;;;;;;;;;;;;;;;5.72;76.65;98010.59;5028480;28;19947;-71
2021/11/03 03:41:33;;;;;;;;;;;;;;;5.72;77.07;98010.59;5031104;28;19987;-72
2021/11/03 03:43:58;;;;;;;;;;;;;;;5.76;76.67;98014.72;5031851;28;20361;-72
2021/11/03 03:46:24;;;;;;;;;;;;;;;5.77;76.38;98004.16;5034123;28;19925;-72
2021/11/03 03:48:50;;;;;;;;;;;;;;;5.73;77.06;98010.47;5031366;28;20324;-71
2021/11/03 03:51:15;;;;;;;;;;;;;;;5.75;77.28;98018.25;5030780;28;19924;-72
2021/11/03 03:53:40;;;;;;;;;;;;;;;5.78;77.36;98016.31;5012961;28;19913;-72
2021/11/03 03:56:06;;;;;;;;;;;;;;;5.77;76.49;98019.84;5030496;28;20392;-71
2021/11/03 03:58:31;;;;;;;;;;;;;;;5.78;77.27;98023.28;5012976;28;20395;-72
2021/11/03 04:00:57;;;;;;;;;;;;;;;5.74;76.69;98022.63;5030301;28;19921;-72
2021/11/03 04:03:22;;;;;;;;;;;;;;;5.65;77.81;98025.78;5030570;28;19925;-71
2021/11/03 04:05:48;;;;;;;;;;;;;;;5.72;77.62;98024.50;5013060;28;19925;-72
2021/11/03 04:08:15;;;;;;;;;;;;;;;5.78;77.07;98024.16;5031258;28;19917;-71
2021/11/03 04:10:41;;;;;;;;;;;;;;;5.80;76.62;98022.25;5030186;28;19940;-72
2021/11/03 04:13:06;;;;;;;;;;;;;;;5.84;76.76;98022.13;4996584;28;19939;-72
2021/11/03 04:15:32;;;;;;;;;;;;;;;5.72;77.18;98031.50;5030474;28;19917;-71
2021/11/03 04:17:58;;;;;;;;;;;;;;;5.70;77.59;98036.81;5030890;28;19921;-72
2021/11/03 04:20:25;;;;;;;;;;;;;;;5.69;77.65;98034.31;5029354;28;24897;-70
2021/11/03 04:22:50;;;;;;;;;;;;;;;5.74;77.50;98027.03;5030336;28;19963;-72
2021/11/03 04:25:16;;;;;;;;;;;;;;;5.77;77.43;98022.44;5030488;28;19956;-73
2021/11/03 04:27:41;;;;;;;;;;;;;;;5.85;77.05;98022.00;5030466;28;20019;-71
2021/11/03 04:30:07;;;;;;;;;;;;;;;5.89;76.59;98012.22;5029989;28;19928;-70
2021/11/03 04:32:33;;;;;;;;;;;;;;;5.90;76.50;98016.50;5029892;28;20066;-70
2021/11/03 04:34:58;;;;;;;;;;;;;;;5.90;76.35;98006.03;5012985;28;19917;-71
2021/11/03 04:37:23;;;;;;;;;;;;;;;5.90;76.38;98003.44;5010490;28;20397;-71
2021/11/03 04:39:48;;;;;;;;;;;;;;;5.90;76.56;98011.28;5009852;28;19929;-71
2021/11/03 04:42:13;;;;;;;;;;;;;;;5.87;76.71;98008.84;5009599;28;20461;-71
2021/11/03 04:44:39;;;;;;;;;;;;;;;5.86;76.56;98004.53;5009645;28;20498;-71
2021/11/03 04:47:04;;;;;;;;;;;;;;;5.85;76.67;98005.47;5009790;28;19921;-71
2021/11/03 04:49:30;;;;;;;;;;;;;;;5.85;76.84;98008.09;4992644;28;19948;-71
2021/11/03 04:51:55;;;;;;;;;;;;;;;5.89;77.16;98013.06;5011000;28;19917;-71
2021/11/03 04:54:21;;;;;;;;;;;;;;;5.94;77.09;98012.81;5032217;28;19928;-71
2021/11/03 04:56:46;;;;;;;;;;;;;;;5.95;77.41;98006.66;5030155;28;19918;-72
2021/11/03 04:59:12;;;;;;;;;;;;;;;5.97;77.24;98007.41;5029763;28;19921;-71
2021/11/03 05:01:37;;;;;;;;;;;;;;;6.02;77.35;98005.34;5029604;28;20387;-71
2021/11/03 05:04:03;;;;;;;;;;;;;;;6.07;76.95;98002.47;5029827;28;19917;-72
2021/11/03 05:06:29;;;;;;;;;;;;;;;6.12;76.52;97997.81;5012899;28;19992;-71
2021/11/03 05:08:55;;;;;;;;;;;;;;;6.09;76.29;97998.00;5029900;28;19939;-71
2021/11/03 05:11:20;;;;;;;;;;;;;;;5.99;77.84;97992.47;5029374;28;20456;-71
2021/11/03 05:13:48;;;;;;;;;;;;;;;5.92;77.76;97993.72;5029179;28;19917;-71
2021/11/03 05:16:15;;;;;;;;;;;;;;;5.87;78.10;97998.38;5029427;28;19925;-72
2021/11/03 05:18:40;;;;;;;;;;;;;;;5.88;78.32;97992.22;5030359;28;19931;-71
2021/11/03 05:21:05;;;;;;;;;;;;;;;5.79;78.28;97991.00;5030541;28;20003;-72
2021/11/03 05:23:30;;;;;;;;;;;;;;;5.78;78.67;97989.28;5031048;28;19924;-71
2021/11/03 05:25:56;;;;;;;;;;;;;;;5.82;79.16;97988.19;5026259;28;19917;-72
2021/11/03 05:28:21;;;;;;;;;;;;;;;5.83;78.69;97987.25;5029173;28;19921;-73
2021/11/03 05:30:47;;;;;;;;;;;;;;;5.91;78.96;97978.97;5028887;28;19921;-72
2021/11/03 05:33:12;;;;;;;;;;;;;;;5.95;78.61;97972.66;5029322;28;19917;-72
2021/11/03 05:35:38;;;;;;;;;;;;;;;5.89;78.56;97988.69;5028610;28;19918;-71
2021/11/03 05:38:03;;;;;;;;;;;;;;;5.89;78.34;97973.00;5027852;28;19975;-71
2021/11/03 05:40:29;;;;;;;;;;;;;;;5.93;78.34;97971.84;5029216;28;19921;-74
2021/11/03 05:42:54;;;;;;;;;;;;;;;5.98;78.78;97975.06;5029402;28;20292;-73
2021/11/03 05:45:19;;;;;;;;;;;;;;;6.03;78.08;97975.66;5028995;28;20388;-73
2021/11/03 05:47:45;;;;;;;;;;;;;;;6.09;78.30;97970.06;5029080;28;19917;-72
2021/11/03 05:50:12;;;;;;;;;;;;;;;6.15;77.60;97976.69;5011430;28;19917;-72
2021/11/03 05:52:37;;;;;;;;;;;;;;;6.15;77.69;97969.69;5029605;28;20491;-71
2021/11/03 05:55:03;;;;;;;;;;;;;;;6.16;77.91;97968.75;5030286;28;19917;-72
2021/11/03 05:57:30;;;;;;;;;;;;;;;6.17;78.19;97965.19;5032899;28;19940;-72
2021/11/03 05:59:56;;;;;;;;;;;;;;;6.20;78.30;97966.78;5015217;28;20371;-71
2021/11/03 06:02:22;;;;;;;;;;;;;;;6.26;78.11;97960.34;5030744;28;19921;-72
2021/11/03 06:04:47;;;;;;;;;;;;;;;6.31;78.21;97960.91;5033077;28;19921;-72
2021/11/03 06:07:13;;;;;;;;;;;;;;;6.27;77.43;97955.00;5033028;28;19962;-72
2021/11/03 06:09:39;;;;;;;;;;;;;;;6.28;76.83;97955.88;5033040;28;20403;-72
2021/11/03 06:12:04;;;;;;;;;;;;;;;6.31;77.27;97959.13;5033059;28;19917;-72
2021/11/03 06:14:29;;;;;;;;;;;;;;;6.38;77.42;97965.66;5033587;28;20437;-71
2021/11/03 06:16:55;;;;;;;;;;;;;;;6.43;77.38;97966.22;5032346;28;19917;-71
2021/11/03 06:19:20;;;;;;;;;;;;;;;6.45;77.30;97966.97;5033901;28;20003;-71
2021/11/03 06:21:45;;;;;;;;;;;;;;;6.46;77.53;97967.81;5033410;28;20002;-71
2021/11/03 06:24:10;;;;;;;;;;;;;;;6.46;77.75;97970.44;5033306;28;20373;-71
2021/11/03 06:26:36;;;;;;;;;;;;;;;6.39;77.99;97967.34;5017327;28;20005;-71
2021/11/03 06:29:01;;;;;;;;;;;;;;;6.40;77.84;97970.81;5032033;28;20003;-71
2021/11/03 06:31:27;;;;;;;;;;;;;;;6.33;78.65;97966.91;5033030;28;19957;-71
2021/11/03 06:33:53;;;;;;;;;;;;;;;6.35;78.72;97965.88;5041282;28;19917;-72
2021/11/03 06:36:18;;;;;;;;;;;;;;;6.37;78.80;97961.34;5035223;28;20288;-72
2021/11/03 06:38:44;;;;;;;;;;;;;;;6.41;78.14;97962.84;5033254;28;19922;-71
2021/11/03 06:41:10;;;;;;;;;;;;;;;6.40;78.39;97949.88;5029078;28;20024;-71
2021/11/03 06:43:36;;;;;;;;;;;;;;;6.43;78.11;97950.53;5015403;28;19928;-71
2021/11/03 06:46:01;;;;;;;;;;;;;;;6.54;77.46;97949.00;5032248;28;19921;-71
2021/11/03 06:48:27;;;;;;;;;;;;;;;6.60;77.24;97944.25;5032427;28;19978;-72
2021/11/03 06:50:52;;;;;;;;;;;;;;;6.66;76.26;97946.44;5031482;28;19917;-71
2021/11/03 06:53:21;;;;;;;;;;;;;;;6.69;75.61;97937.56;5031727;28;19921;-70
2021/11/03 06:55:48;;;;;;;;;;;;;;;6.68;75.73;97945.53;5031230;28;19917;-72
2021/11/03 06:58:14;;;;;;;;;;;;;;;6.72;75.69;97941.75;5033853;28;20028;-71
2021/11/03 07:00:40;;;;;;;;;;;;;;;6.72;75.31;97937.41;5031579;28;20004;-73
2021/11/03 07:03:06;;;;;;;;;;;;;;;6.74;75.20;97932.03;5032067;28;20369;-73
2021/11/03 07:05:32;;;;;;;;;;;;;;;6.76;75.86;97935.41;5030934;28;19928;-72
2021/11/03 07:07:57;;;;;;;;;;;;;;;6.76;75.90;97935.41;5014294;28;19933;-73
2021/11/03 07:10:25;;;;;;;;;;;;;;;6.80;76.07;97936.91;5031701;28;20377;-75
2021/11/03 07:12:50;;;;;;;;;;;;;;;6.78;76.07;97936.16;5013910;28;19917;-74
2021/11/03 07:15:15;;;;;;;;;;;;;;;6.76;75.64;97940.66;5031144;28;20651;-74
2021/11/03 07:17:41;;;;;;;;;;;;;;;6.79;75.28;97941.31;5013121;28;20293;-74
2021/11/03 07:20:07;;;;;;;;;;;;;;;6.79;75.75;97943.06;5031682;28;19931;-73
2021/11/03 07:22:32;;;;;;;;;;;;;;;6.78;75.94;97941.41;5031537;28;19921;-72
2021/11/03 07:24:57;;;;;;;;;;;;;;;6.83;75.26;97948.00;5031513;28;20335;-71
2021/11/03 07:27:23;;;;;;;;;;;;;;;6.82;75.42;97958.59;5031623;28;19917;-71
2021/11/03 07:29:48;;;;;;;;;;;;;;;6.85;75.27;97955.78;5013730;28;20265;-73
2021/11/03 07:32:14;;;;;;;;;;;;;;;6.86;75.30;97960.91;5018182;28;20024;-74
2021/11/03 07:34:39;;;;;;;;;;;;;;;6.88;75.37;97966.91;5011972;28;19979;-74
2021/11/03 07:37:04;;;;;;;;;;;;;;;6.87;75.48;97954.75;4994713;28;20285;-73
2021/11/03 07:39:30;;;;;;;;;;;;;;;6.90;75.61;97955.50;5011670;28;19929;-74
2021/11/03 07:41:55;;;;;;;;;;;;;;;6.92;75.28;97957.06;5011204;28;19917;-73
2021/11/03 07:44:21;;;;;;;;;;;;;;;6.92;74.93;97957.06;5011417;28;19925;-73
2021/11/03 07:46:46;;;;;;;;;;;;;;;6.89;75.42;97970.34;5011352;28;20008;-74
2021/11/03 07:49:11;;;;;;;;;;;;;;;6.90;75.28;97966.81;5010144;28;20367;-73
2021/11/03 07:51:37;;;;;;;;;;;;;;;6.96;75.17;97965.56;4993522;28;19952;-74
2021/11/03 07:54:02;;;;;;;;;;;;;;;7.00;75.34;97962.66;5011217;28;19976;-73
2021/11/03 07:56:29;;;;;;;;;;;;;;;7.03;74.93;97966.84;5011073;28;19932;-73
2021/11/03 07:58:55;;;;;;;;;;;;;;;6.96;74.83;97976.88;5011115;28;20305;-72
2021/11/03 08:01:20;;;;;;;;;;;;;;;6.96;75.32;97984.75;5022180;28;19921;-74
2021/11/03 08:03:46;;;;;;;;;;;;;;;6.95;74.43;97988.31;5015083;28;20036;-74
2021/11/03 08:06:12;;;;;;;;;;;;;;;6.93;75.08;97990.19;5026242;28;19975;-74
2021/11/03 08:08:39;;;;;;;;;;;;;;;6.83;74.35;97989.91;5029947;28;19921;-75
2021/11/03 08:11:05;;;;;;;;;;;;;;;6.75;74.63;97992.19;5023647;28;20020;-74
2021/11/03 08:13:32;;;;;;;;;;;;;;;6.79;75.28;97998.94;5025500;28;20020;-73
2021/11/03 08:15:58;;;;;;;;;;;;;;;6.77;74.31;97995.56;5024931;28;19928;-75
2021/11/03 08:18:28;;;;;;;;;;;;;;;6.80;75.36;97997.13;5022376;28;19932;-71
2021/11/03 08:20:54;;;;;;;;;;;;;;;6.81;75.44;97990.94;5023771;28;20347;-70
2021/11/03 08:23:19;;;;;;;;;;;;;;;6.79;74.86;97998.06;5011063;28;19971;-71
2021/11/03 08:25:44;;;;;;;;;;;;;;;6.67;75.38;97997.06;5013372;28;20648;-71
2021/11/03 08:28:10;;;;;;;;;;;;;;;6.63;75.57;97992.94;5005970;28;19920;-70
2021/11/03 08:30:38;;;;;;;;;;;;;;;6.63;75.43;97987.72;5005838;28;19921;-70
2021/11/03 08:33:06;;;;;;;;;;;;;;;6.61;75.29;97990.41;5020249;28;19928;-71
2021/11/03 08:35:31;;;;;;;;;;;;;;;6.62;75.60;97991.25;5024034;28;19921;-71
2021/11/03 08:38:00;;;;;;;;;;;;;;;6.64;75.71;97984.16;5005616;28;19929;-72
2021/11/03 08:40:26;;;;;;;;;;;;;;;6.69;76.04;97989.09;4933031;28;19924;-72
2021/11/03 08:42:52;;;;;;;;;;;;;;;6.79;75.75;97990.19;5010438;28;19921;-72
2021/11/03 08:45:17;;;;;;;;;;;;;;;6.75;75.38;97983.50;5024643;28;19929;-71
2021/11/03 08:47:43;;;;;;;;;;;;;;;6.70;75.51;97990.81;5028370;28;20035;-70
2021/11/03 08:50:11;;;;;;;;;;;;;;;6.72;75.99;97994.13;5029046;28;19990;-72
2021/11/03 08:52:37;;;;;;;;;;;;;;;6.73;75.95;98003.69;5023938;28;20377;-72
2021/11/03 08:55:02;;;;;;;;;;;;;;;6.75;75.84;98004.44;5023917;28;19925;-72
2021/11/03 08:57:28;;;;;;;;;;;;;;;6.75;76.61;98004.44;5024584;28;19921;-72
2021/11/03 08:59:54;;;;;;;;;;;;;;;6.83;76.38;98003.00;5006855;28;19979;-72
2021/11/03 09:02:20;;;;;;;;;;;;;;;6.90;75.94;98010.50;5023245;28;19921;-72
2021/11/03 09:04:46;;;;;;;;;;;;;;;6.91;76.14;98009.56;5023377;28;20015;-71
2021/11/03 09:07:12;;;;;;;;;;;;;;;6.94;76.38;98012.84;5023963;28;19964;-72
2021/11/03 09:09:42;;;;;;;;;;;;;;;6.98;76.34;98003.81;5023703;28;19952;-72
2021/11/03 09:12:08;;;;;;;;;;;;;;;7.01;76.33;98008.03;5024519;28;19921;-73
2021/11/03 09:14:33;;;;;;;;;;;;;;;7.04;76.52;98011.31;5024878;28;19928;-71
2021/11/03 09:16:58;;;;;;;;;;;;;;;7.06;76.79;98009.44;5025724;28;19967;-72
2021/11/03 09:19:24;;;;;;;;;;;;;;;7.03;77.09;98007.00;5007959;28;19932;-73
2021/11/03 09:21:49;;;;;;;;;;;;;;;7.07;76.80;98012.91;5003110;28;20017;-72
2021/11/03 09:24:14;;;;;;;;;;;;;;;7.04;76.62;98005.25;4992565;28;19925;-73
2021/11/03 09:26:41;;;;;;;;;;;;;;;7.05;77.20;98002.50;5033119;28;20435;-73
2021/11/03 09:29:06;;;;;;;;;;;;;;;7.05;76.82;97999.88;5034064;28;20484;-74
2021/11/03 09:31:32;;;;;;;;;;;;;;;7.13;77.37;97988.06;5009323;28;19956;-72
2021/11/03 09:33:58;;;;;;;;;;;;;;;7.17;77.38;97992.19;5028224;28;19975;-73
2021/11/03 09:36:24;;;;;;;;;;;;;;;7.20;77.36;98003.31;5027510;28;19925;-72
2021/11/03 09:38:52;;;;;;;;;;;;;;;7.24;78.21;98002.19;5027456;28;19925;-72
2021/11/03 09:41:24;;;;;;;;;;;;;;;7.22;77.54;98003.22;5026353;28;19928;-74
2021/11/03 09:43:51;;;;;;;;;;;;;;;7.19;77.47;97999.00;5027477;28;19928;-73
2021/11/03 09:46:20;;;;;;;;;;;;;;;7.23;77.96;97999.66;5026787;28;19925;-73
2021/11/03 09:48:49;;;;;;;;;;;;;;;7.12;77.56;98002.13;5026817;28;19987;-71
2021/11/03 09:51:20;;;;;;;;;;;;;;;7.09;78.54;98009.25;5026105;28;19928;-72
2021/11/03 09:53:53;;;;;;;;;;;;;;;7.17;78.45;98015.78;5027450;28;20016;-71
2021/11/03 09:56:21;;;;;;;;;;;;;;;7.25;78.57;98016.13;5026526;28;20007;-71
2021/11/03 09:59:09;;;;;;;;;;;;;;;7.22;78.18;98008.47;5026962;28;20011;-71
2021/11/03 10:01:47;;;;;;;;;;;;;;;7.18;78.52;98009.59;5025362;28;20308;-70
2021/11/03 10:04:18;;;;;;;;;;;;;;;7.09;79.47;98011.84;5027171;28;20297;-71
2021/11/03 10:06:50;;;;;;;;;;;;;;;7.06;79.84;98014.69;5026898;28;20002;-71
2021/11/03 10:09:15;;;;;;;;;;;;;;;7.08;79.79;98010.16;5026485;28;20388;-72
2021/11/03 10:11:44;;;;;;;;;;;;;;;7.08;79.44;98011.94;5025918;28;20392;-70
2021/11/03 10:14:10;;;;;;;;;;;;;;;7.02;79.62;98012.34;5026658;28;19921;-72
2021/11/03 10:16:41;;;;;;;;;;;;;;;7.01;80.16;98008.03;5026743;28;19924;-71
2021/11/03 10:19:06;;;;;;;;;;;;;;;7.07;79.99;98007.66;5026007;28;19925;-72
2021/11/03 10:21:31;;;;;;;;;;;;;;;7.02;80.56;98009.72;5025967;28;19930;-71
2021/11/03 10:24:02;;;;;;;;;;;;;;;6.96;79.86;98016.19;5026294;28;19931;-71
2021/11/03 10:26:29;;;;;;;;;;;;;;;6.97;80.03;98017.03;5039875;28;19921;-72
2021/11/03 10:29:12;;;;;;;;;;;;;;;6.94;80.57;98019.84;5045938;28;20686;-71
2021/11/03 10:31:46;;;;;;;;;;;;;;;6.94;80.75;98015.47;5045398;28;19925;-71
2021/11/03 10:34:31;;;;;;;;;;;;;;;7.03;80.86;98014.03;5028376;28;19963;-71
2021/11/03 10:36:59;;;;;;;;;;;;;;;7.12;80.58;98016.06;5029097;28;19924;-70
2021/11/03 10:39:25;;;;;;;;;;;;;;;7.18;79.89;98014.81;5045881;28;19924;-70
2021/11/03 10:42:01;;;;;;;;;;;;;;;7.20;79.68;98015.56;5044787;28;19928;-72
2021/11/03 10:44:27;;;;;;;;;;;;;;;7.22;80.63;98024.19;5024707;28;19921;-71
2021/11/03 10:46:57;;;;;;;;;;;;;;;7.23;79.88;98020.59;5006336;28;19929;-70
2021/11/03 10:49:25;;;;;;;;;;;;;;;7.28;80.63;98029.84;5006232;28;20900;-71
2021/11/03 10:51:59;;;;;;;;;;;;;;;7.24;80.31;98023.16;5004318;28;20004;-70
2021/11/03 10:54:35;;;;;;;;;;;;;;;7.25;79.52;98026.59;5007103;28;19972;-72
2021/11/03 10:57:10;;;;;;;;;;;;;;;7.20;80.88;98026.88;5005461;28;19922;-72
2021/11/03 10:59:45;;;;;;;;;;;;;;;7.23;80.79;98029.31;5006035;28;20409;-71
2021/11/03 11:02:19;;;;;;;;;;;;;;;7.23;81.04;98025.84;5014731;28;19921;-72
2021/11/03 11:04:46;;;;;;;;;;;;;;;7.31;80.88;98021.81;5007614;28;19920;-72
2021/11/03 11:07:31;;;;;;;;;;;;;;;7.30;80.98;98014.03;5007374;28;19943;-72
2021/11/03 11:09:59;;;;;;;;;;;;;;;7.21;81.54;98017.25;5025347;28;20471;-73
2021/11/03 11:12:32;;;;;;;;;;;;;;;7.19;80.91;98014.75;5023174;28;19921;-73
2021/11/03 11:15:06;;;;;;;;;;;;;;;7.20;81.29;97999.84;5003280;28;19925;-73
2021/11/03 11:17:31;;;;;;;;;;;;;;;7.12;80.75;98013.44;5025657;28;19928;-72
2021/11/03 11:19:59;;;;;;;;;;;;;;;7.09;81.12;98003.16;5026128;28;19925;-72
2021/11/03 11:22:44;;;;;;;;;;;;;;;7.13;81.38;98002.00;5012430;28;19967;-72
2021/11/03 11:25:09;;;;;;;;;;;;;;;7.17;80.94;98000.06;5006919;28;20411;-75
2021/11/03 11:27:37;;;;;;;;;;;;;;;7.18;81.18;98001.72;5031442;28;20018;-70
2021/11/03 11:30:03;;;;;;;;;;;;;;;7.20;81.54;98002.47;5019725;28;20645;-70
2021/11/03 11:32:40;;;;;;;;;;;;;;;7.23;81.45;97995.25;5038175;28;19931;-72
2021/11/03 11:35:15;;;;;;;;;;;;;;;7.29;82.03;98001.88;5033225;28;20401;-72
2021/11/03 11:37:43;;;;;;;;;;;;;;;7.36;82.04;98003.16;5051236;28;19917;-71
2021/11/03 11:40:21;;;;;;;;;;;;;;;7.33;82.08;98005.97;5051538;28;19920;-72
2021/11/03 11:42:55;;;;;;;;;;;;;;;7.36;81.47;98010.16;5051695;28;19948;-73
2021/11/03 11:45:23;;;;;;;;;;;;;;;7.26;81.25;98012.53;5006968;28;19921;-71
2021/11/03 11:47:51;;;;;;;;;;;;;;;7.22;81.90;98003.22;5012726;28;19967;-72
2021/11/03 11:50:17;;;;;;;;;;;;;;;7.23;82.58;98010.13;5028656;28;20415;-74
2021/11/03 11:52:42;;;;;;;;;;;;;;;7.25;81.30;98013.50;5028806;28;19917;-72
2021/11/03 11:55:18;;;;;;;;;;;;;;;7.26;82.18;98023.91;5030241;28;20015;-73
2021/11/03 11:58:03;;;;;;;;;;;;;;;7.27;82.06;98022.09;5031042;28;19940;-72
2021/11/03 12:00:29;;;;;;;;;;;;;;;7.31;82.02;98027.06;5011556;28;20361;-73
2021/11/03 12:03:03;;;;;;;;;;;;;;;7.33;81.76;98026.94;5031299;28;20023;-74
2021/11/03 12:05:51;;;;;;;;;;;;;;;7.34;81.58;98028.63;5030001;28;19928;-72
2021/11/03 12:08:21;;;;;;;;;;;;;;;7.21;82.04;98022.47;5011061;28;19928;-72
2021/11/03 12:11:02;;;;;;;;;;;;;;;7.14;82.54;98021.19;5037050;28;20394;-72
2021/11/03 12:13:29;;;;;;;;;;;;;;;7.18;82.65;98017.44;5040457;28;19924;-71
2021/11/03 12:15:54;;;;;;;;;;;;;;;7.14;82.62;98003.72;5038671;28;19917;-73
2021/11/03 12:18:39;;;;;;;;;;;;;;;7.14;82.82;98008.09;5039151;28;19921;-72
2021/11/03 12:21:04;;;;;;;;;;;;;;;7.14;83.21;98000.22;5022677;28;19967;-72
2021/11/03 12:23:38;;;;;;;;;;;;;;;7.21;83.55;98004.13;5040387;28;20280;-73
2021/11/03 12:26:22;;;;;;;;;;;;;;;7.24;83.13;98002.19;5016676;28;20296;-73
2021/11/03 12:29:02;;;;;;;;;;;;;;;7.31;83.61;97995.59;5030701;28;20438;-73
2021/11/03 12:31:30;;;;;;;;;;;;;;;7.32;83.21;97999.91;5030375;28;19975;-72
2021/11/03 12:34:01;;;;;;;;;;;;;;;7.38;83.32;98006.50;5031694;28;19917;-72
2021/11/03 12:36:27;;;;;;;;;;;;;;;7.45;83.29;98005.19;5013444;28;19921;-73
2021/11/03 12:38:54;;;;;;;;;;;;;;;7.40;82.19;97998.56;5024514;28;19921;-73
2021/11/03 12:41:21;;;;;;;;;;;;;;;7.44;82.83;97997.44;5010881;28;19927;-71
2021/11/03 12:43:50;;;;;;;;;;;;;;;7.41;82.10;98001.09;5011372;28;19942;-73
2021/11/03 12:46:18;;;;;;;;;;;;;;;7.40;81.77;97991.53;5008707;28;20670;-72
2021/11/03 12:48:43;;;;;;;;;;;;;;;7.39;81.88;97995.09;5039385;28;20027;-72
2021/11/03 12:51:31;;;;;;;;;;;;;;;7.41;82.43;97994.97;5021595;28;19964;-72
2021/11/03 12:54:13;;;;;;;;;;;;;;;7.41;82.64;97993.22;5002754;28;19921;-72
2021/11/03 12:56:40;;;;;;;;;;;;;;;7.38;82.30;97995.19;5024316;28;19927;-71
2021/11/03 12:59:17;;;;;;;;;;;;;;;7.34;82.29;98001.59;5032847;28;19924;-71